createdAt,value
2019-02-23T00:00:18.497Z,2.5
2019-02-23T00:03:18.839Z,2.7
2019-02-23T00:06:30.471Z,2.6
2019-02-23T00:09:18.771Z,2.6
2019-02-23T00:12:18.617Z,2.7
2019-02-23T00:15:18.534Z,2.7
2019-02-23T00:18:18.858Z,2.7
2019-02-23T00:21:18.789Z,2.6
2019-02-23T00:24:19.078Z,2.7
2019-02-23T00:27:18.888Z,2.6
2019-02-23T00:30:18.803Z,2.6
2019-02-23T00:33:19.768Z,2.8
2019-02-23T00:36:18.990Z,2.8
2019-02-23T00:39:18.238Z,2.7
2019-02-23T00:42:18.696Z,2.7
2019-02-23T00:45:18.406Z,2.7
2019-02-23T00:48:18.392Z,2.6
2019-02-23T00:51:18.662Z,2.7
2019-02-23T00:54:19.396Z,2.7
2019-02-23T00:57:18.881Z,3
2019-02-23T01:00:18.761Z,2.9
2019-02-23T01:03:18.758Z,2.8
2019-02-23T01:06:20.294Z,2.8
2019-02-23T01:09:18.363Z,2.8
2019-02-23T01:12:18.608Z,2.7
2019-02-23T01:15:19.411Z,2.7
2019-02-23T01:18:18.954Z,2.7
2019-02-23T01:21:18.904Z,2.6
2019-02-23T01:24:18.865Z,2.9
2019-02-23T01:27:18.999Z,2.8
2019-02-23T01:30:18.827Z,2.7
2019-02-23T01:33:19.040Z,2.7
2019-02-23T01:36:18.577Z,2.7
2019-02-23T01:39:18.301Z,3
2019-02-23T01:42:18.300Z,2.8
2019-02-23T01:45:18.405Z,3.2
2019-02-23T01:48:18.528Z,3
2019-02-23T01:51:18.400Z,2.8
2019-02-23T01:54:18.488Z,2.8
2019-02-23T01:57:19.341Z,2.8
2019-02-23T02:00:18.490Z,2.6
2019-02-23T02:03:20.340Z,2.6
2019-02-23T02:06:18.482Z,2.7
2019-02-23T02:09:19.444Z,2.6
2019-02-23T02:12:18.508Z,2.7
2019-02-23T02:15:18.917Z,2.7
2019-02-23T02:18:18.734Z,2.7
2019-02-23T02:21:18.789Z,2.7
2019-02-23T02:24:18.922Z,2.8
2019-02-23T02:27:19.028Z,2.7
2019-02-23T02:30:18.887Z,2.7
2019-02-23T02:33:18.442Z,2.8
2019-02-23T02:36:18.598Z,2.8
2019-02-23T02:39:18.610Z,2.7
2019-02-23T02:42:18.995Z,2.6
2019-02-23T02:45:18.369Z,2.7
2019-02-23T02:48:18.563Z,2.9
2019-02-23T02:51:18.382Z,2.7
2019-02-23T02:54:18.635Z,2.7
2019-02-23T02:57:18.574Z,2.7
2019-02-23T03:00:18.734Z,2.7
2019-02-23T03:03:18.349Z,3
2019-02-23T03:06:19.014Z,2.9
2019-02-23T03:09:18.411Z,2.7
2019-02-23T03:12:18.860Z,2.7
2019-02-23T03:15:18.742Z,2.7
2019-02-23T03:18:18.369Z,2.8
2019-02-23T03:21:18.683Z,2.8
2019-02-23T03:24:18.413Z,2.8
2019-02-23T03:27:19.237Z,2.8
2019-02-23T03:30:19.052Z,2.8
2019-02-23T03:33:18.686Z,2.8
2019-02-23T03:36:18.243Z,2.9
2019-02-23T03:39:18.525Z,2.8
2019-02-23T03:42:18.687Z,2.8
2019-02-23T03:45:18.589Z,2.9
2019-02-23T03:48:18.411Z,2.7
2019-02-23T03:51:18.666Z,2.8
2019-02-23T03:54:18.875Z,2.9
2019-02-23T03:57:18.488Z,2.8
2019-02-23T04:00:18.418Z,2.8
2019-02-23T04:03:20.391Z,2.7
2019-02-23T04:06:18.370Z,2.9
2019-02-23T04:09:18.468Z,2.9
2019-02-23T04:12:19.097Z,2.8
2019-02-23T04:15:19.174Z,2.7
2019-02-23T04:18:18.735Z,2.8
2019-02-23T04:21:18.391Z,2.7
2019-02-23T04:24:18.539Z,2.8
2019-02-23T04:27:18.456Z,2.8
2019-02-23T04:30:18.415Z,2.7
2019-02-23T04:33:20.276Z,2.7
2019-02-23T04:36:18.455Z,2.8
2019-02-23T04:39:18.754Z,2.8
2019-02-23T04:42:18.480Z,2.7
2019-02-23T04:45:18.523Z,2.7
2019-02-23T04:48:18.591Z,2.7
2019-02-23T04:51:19.340Z,2.7
2019-02-23T04:54:18.693Z,2.7
2019-02-23T04:57:18.486Z,2.6
2019-02-23T05:00:18.615Z,2.6
2019-02-23T05:03:19.306Z,2.5
2019-02-23T05:06:18.577Z,2.5
2019-02-23T05:09:18.982Z,2.5
2019-02-23T05:12:18.539Z,2.5
2019-02-23T05:15:18.454Z,2.4
2019-02-23T05:18:18.655Z,2.4
2019-02-23T05:21:27.329Z,2.4
2019-02-23T05:24:18.786Z,2.3
2019-02-23T05:27:18.306Z,2.3
2019-02-23T05:30:18.594Z,2.3
2019-02-23T05:33:19.226Z,2.3
2019-02-23T05:36:18.497Z,2.3
2019-02-23T05:39:18.497Z,2.2
2019-02-23T05:42:18.685Z,2.3
2019-02-23T05:45:18.872Z,2.3
2019-02-23T05:48:18.604Z,2.2
2019-02-23T05:51:18.512Z,2.2
2019-02-23T05:54:18.527Z,2.3
2019-02-23T05:57:18.600Z,2.1
2019-02-23T06:00:18.540Z,2.1
2019-02-23T06:03:20.134Z,2.2
2019-02-23T06:06:18.689Z,2.2
2019-02-23T06:09:18.987Z,2.2
2019-02-23T06:12:18.525Z,2.2
2019-02-23T06:15:18.240Z,2.2
2019-02-23T06:18:18.386Z,2.2
2019-02-23T06:21:18.621Z,2.2
2019-02-23T06:24:18.231Z,2.2
2019-02-23T06:27:18.261Z,2.2
2019-02-23T06:30:18.871Z,2.3
2019-02-23T06:33:18.575Z,2.2
2019-02-23T06:36:18.600Z,2.1
2019-02-23T06:39:18.710Z,2.3
2019-02-23T06:42:18.312Z,2.2
2019-02-23T06:45:18.417Z,2.2
2019-02-23T06:48:20.540Z,2.2
2019-02-23T06:51:18.979Z,2.3
2019-02-23T06:54:18.575Z,2.2
2019-02-23T06:57:18.832Z,2.2
2019-02-23T07:00:19.261Z,2.2
2019-02-23T07:03:18.604Z,2.2
2019-02-23T07:06:19.118Z,2.2
2019-02-23T07:09:18.629Z,2.2
2019-02-23T07:12:18.544Z,2.2
2019-02-23T07:15:18.346Z,2.2
2019-02-23T07:18:18.328Z,2.3
2019-02-23T07:21:19.174Z,2.2
2019-02-23T07:24:18.640Z,2.2
2019-02-23T07:27:18.523Z,2.2
2019-02-23T07:30:18.231Z,2.1
2019-02-23T07:33:33.625Z,2.2
2019-02-23T07:36:18.393Z,2.2
2019-02-23T07:39:18.375Z,2.2
2019-02-23T07:42:18.501Z,2.2
2019-02-23T07:45:18.667Z,2.2
2019-02-23T07:48:19.284Z,2.3
2019-02-23T07:51:18.421Z,2.2
2019-02-23T07:54:18.316Z,2.2
2019-02-23T07:57:18.337Z,2.3
2019-02-23T08:00:18.399Z,2.3
2019-02-23T08:03:18.517Z,2.3
2019-02-23T08:06:19.771Z,2.3
2019-02-23T08:09:19.110Z,2.3
2019-02-23T08:12:18.137Z,2.3
2019-02-23T08:15:18.663Z,2.3
2019-02-23T08:18:18.623Z,2.3
2019-02-23T08:21:18.484Z,2.4
2019-02-23T08:24:18.548Z,2.3
2019-02-23T08:27:18.464Z,2.3
2019-02-23T08:30:18.401Z,2.4
2019-02-23T08:33:18.837Z,2.3
2019-02-23T08:36:18.721Z,2.3
2019-02-23T08:39:18.542Z,2.3
2019-02-23T08:42:18.474Z,2.3
2019-02-23T08:45:18.367Z,2.3
2019-02-23T08:48:18.510Z,2.3
2019-02-23T08:51:19.055Z,2.3
2019-02-23T08:54:18.173Z,2.3
2019-02-23T08:57:18.788Z,2.3
2019-02-23T09:00:20.095Z,4
2019-02-23T09:03:18.511Z,4.8
2019-02-23T09:06:18.456Z,4.8
2019-02-23T09:09:18.963Z,3.8
2019-02-23T09:12:18.452Z,3.2
2019-02-23T09:15:18.581Z,2.8
2019-02-23T09:18:18.413Z,3.5
2019-02-23T09:21:18.430Z,3.1
2019-02-23T09:24:18.573Z,2.8
2019-02-23T09:27:18.337Z,5.5
2019-02-23T09:30:19.164Z,4.5
2019-02-23T09:33:19.154Z,4.2
2019-02-23T09:36:18.382Z,4.5
2019-02-23T09:39:18.286Z,3.4
2019-02-23T09:42:18.399Z,3.6
2019-02-23T09:45:18.626Z,4
2019-02-23T09:48:18.717Z,3.6
2019-02-23T09:51:18.022Z,3.6
2019-02-23T09:54:18.252Z,4.9
2019-02-23T09:57:18.190Z,3.9
2019-02-23T10:00:18.202Z,4.2
2019-02-23T10:03:18.432Z,5.2
2019-02-23T10:06:19.034Z,7
2019-02-23T10:09:18.570Z,7.9
2019-02-23T10:12:18.511Z,8.7
2019-02-23T10:15:18.871Z,6.8
2019-02-23T10:18:18.187Z,5
2019-02-23T10:21:19.300Z,4.7
2019-02-23T10:24:18.276Z,4.6
2019-02-23T10:27:18.695Z,5.1
2019-02-23T10:30:18.624Z,4.5
2019-02-23T10:33:18.318Z,4.5
2019-02-23T10:36:20.218Z,4.2
2019-02-23T10:39:18.488Z,3.7
2019-02-23T10:42:18.592Z,3.7
2019-02-23T10:45:18.709Z,3.8
2019-02-23T10:48:18.697Z,4
2019-02-23T10:51:18.874Z,3.8
2019-02-23T10:54:18.339Z,3.4
2019-02-23T10:57:19.737Z,3.6
2019-02-23T11:00:18.222Z,4.7
2019-02-23T11:03:18.538Z,3.8
2019-02-23T11:06:18.435Z,3.3
2019-02-23T11:09:18.557Z,3
2019-02-23T11:12:18.093Z,3.7
2019-02-23T11:15:18.324Z,3.6
2019-02-23T11:18:19.357Z,3.3
2019-02-23T11:21:18.988Z,3.1
2019-02-23T11:24:18.741Z,2.9
2019-02-23T11:27:18.216Z,2.9
2019-02-23T11:30:18.616Z,2.7
2019-02-23T11:33:18.693Z,2.8
2019-02-23T11:36:18.203Z,2.9
2019-02-23T11:39:18.203Z,2.7
2019-02-23T11:42:18.192Z,2.8
2019-02-23T11:45:18.287Z,2.6
2019-02-23T11:48:18.957Z,2.6
2019-02-23T11:51:18.349Z,2.9
2019-02-23T11:54:18.503Z,3.5
2019-02-23T11:57:18.446Z,3.1
2019-02-23T12:00:19.109Z,2.7
2019-02-23T12:03:18.721Z,2.6
2019-02-23T12:06:18.569Z,2.5
2019-02-23T12:09:18.351Z,2.6
2019-02-23T12:12:18.948Z,2.6
2019-02-23T12:15:18.470Z,2.6
2019-02-23T12:18:18.217Z,3.1
2019-02-23T12:21:18.188Z,2.7
2019-02-23T12:24:18.082Z,2.7
2019-02-23T12:27:18.334Z,2.6
2019-02-23T12:30:19.101Z,2.9
2019-02-23T12:33:18.626Z,2.6
2019-02-23T12:36:18.193Z,2.5
2019-02-23T12:39:18.543Z,2.4
2019-02-23T12:42:18.573Z,2.5
2019-02-23T12:45:19.078Z,2.5
2019-02-23T12:48:18.401Z,2.7
2019-02-23T12:51:18.223Z,3.4
2019-02-23T12:54:19.995Z,2.9
2019-02-23T12:57:18.572Z,2.7
2019-02-23T13:00:18.318Z,2.7
2019-02-23T13:03:18.499Z,2.8
2019-02-23T13:06:20.167Z,3.6
2019-02-23T13:09:18.381Z,5
2019-02-23T13:12:18.550Z,4.4
2019-02-23T13:15:19.585Z,4.8
2019-02-23T13:18:20.242Z,4.4
2019-02-23T13:21:18.422Z,4.8
2019-02-23T13:24:28.907Z,4.5
2019-02-23T13:27:18.776Z,4.5
2019-02-23T13:30:18.165Z,5.3
2019-02-23T13:33:18.289Z,4.3
2019-02-23T13:36:18.699Z,4.6
2019-02-23T13:39:19.374Z,4.2
2019-02-23T13:42:18.793Z,3.9
2019-02-23T13:45:18.493Z,3.4
2019-02-23T13:48:18.414Z,4.5
2019-02-23T13:51:19.548Z,3.9
2019-02-23T13:54:18.345Z,3.6
2019-02-23T13:57:18.570Z,3.8
2019-02-23T14:00:18.823Z,4.5
2019-02-23T14:03:18.566Z,5.4
2019-02-23T14:06:18.555Z,5
2019-02-23T14:09:18.066Z,5.1
2019-02-23T14:12:18.616Z,4.8
2019-02-23T14:15:18.684Z,3.8
2019-02-23T14:18:18.132Z,3.2
2019-02-23T14:21:18.635Z,3.2
2019-02-23T14:24:18.295Z,3.2
2019-02-23T14:27:21.450Z,3.3
2019-02-23T14:30:18.499Z,3.2
2019-02-23T14:33:18.936Z,2.9
2019-02-23T14:36:18.074Z,2.9
2019-02-23T14:39:18.133Z,3.6
2019-02-23T14:42:18.606Z,3.2
2019-02-23T14:45:18.594Z,2.7
2019-02-23T14:48:18.207Z,3.2
2019-02-23T14:51:18.657Z,2.9
2019-02-23T14:54:19.486Z,2.6
2019-02-23T14:57:18.718Z,4
2019-02-23T15:00:18.849Z,3.3
2019-02-23T15:03:18.627Z,3
2019-02-23T15:06:18.354Z,2.6
2019-02-23T15:09:18.457Z,4.1
2019-02-23T15:12:18.537Z,3.1
2019-02-23T15:15:18.788Z,2.9
2019-02-23T15:18:18.151Z,2.6
2019-02-23T15:21:17.917Z,2.4
2019-02-23T15:24:18.897Z,2.2
2019-02-23T15:27:18.601Z,2.6
2019-02-23T15:30:18.257Z,2.5
2019-02-23T15:33:18.350Z,2.4
2019-02-23T15:36:18.575Z,2.4
2019-02-23T15:39:18.549Z,2.3
2019-02-23T15:42:18.912Z,2.8
2019-02-23T15:45:19.019Z,2.6
2019-02-23T15:48:18.748Z,2.5
2019-02-23T15:51:19.242Z,2.4
2019-02-23T15:54:19.276Z,2.4
2019-02-23T15:57:18.208Z,2.2
2019-02-23T16:00:18.191Z,2.3
2019-02-23T16:03:18.416Z,3.4
2019-02-23T16:06:18.470Z,3.4
2019-02-23T16:09:20.035Z,3.1
2019-02-23T16:12:18.216Z,3.2
2019-02-23T16:15:17.880Z,3
2019-02-23T16:18:17.970Z,2.8
2019-02-23T16:21:18.947Z,3
2019-02-23T16:24:18.408Z,2.7
2019-02-23T16:27:18.530Z,2.7
2019-02-23T16:30:18.372Z,3.1
2019-02-23T16:33:18.680Z,2.6
2019-02-23T16:36:18.137Z,2.5
2019-02-23T16:39:19.113Z,2.6
2019-02-23T16:42:19.235Z,2.5
2019-02-23T16:45:18.647Z,3.6
2019-02-23T16:48:18.223Z,3.6
2019-02-23T16:51:18.330Z,3
2019-02-23T16:54:18.297Z,2.8
2019-02-23T16:57:18.522Z,2.7
2019-02-23T17:00:18.730Z,2.7
2019-02-23T17:03:18.693Z,2.9
2019-02-23T17:06:18.336Z,2.8
2019-02-23T17:09:18.248Z,2.7
2019-02-23T17:12:18.666Z,2.8
2019-02-23T17:15:18.652Z,2.7
2019-02-23T17:18:18.074Z,3.3
2019-02-23T17:21:18.415Z,3.2
2019-02-23T17:24:18.400Z,3.2
2019-02-23T17:27:18.432Z,3.1
2019-02-23T17:30:18.162Z,2.9
2019-02-23T17:33:18.645Z,2.9
2019-02-23T17:36:18.207Z,2.9
2019-02-23T17:39:18.440Z,2.9
2019-02-23T17:42:28.756Z,2.7
2019-02-23T17:45:18.488Z,2.7
2019-02-23T17:48:18.610Z,2.6
2019-02-23T17:51:18.197Z,2.6
2019-02-23T17:54:17.982Z,2.5
2019-02-23T17:57:18.911Z,3.3
2019-02-23T18:00:18.358Z,2.9
2019-02-23T18:03:19.934Z,3.1
2019-02-23T18:06:18.036Z,4.3
2019-02-23T18:09:18.650Z,3.8
2019-02-23T18:12:18.352Z,3.9
2019-02-23T18:15:18.393Z,5.8
2019-02-23T18:18:18.316Z,4.8
2019-02-23T18:21:18.428Z,4.2
2019-02-23T18:24:18.142Z,3.5
2019-02-23T18:27:19.823Z,3.6
2019-02-23T18:30:18.953Z,3.1
2019-02-23T18:33:18.107Z,3.1
2019-02-23T18:36:17.971Z,2.8
2019-02-23T18:39:18.156Z,2.9
2019-02-23T18:42:18.242Z,2.6
2019-02-23T18:45:17.927Z,3
2019-02-23T18:48:18.090Z,3
2019-02-23T18:51:19.284Z,3.3
2019-02-23T18:54:19.954Z,3.1
2019-02-23T18:57:19.484Z,3
2019-02-23T19:00:24.940Z,3.1
2019-02-23T19:03:18.506Z,2.9
2019-02-23T19:06:18.510Z,3
2019-02-23T19:09:20.030Z,3.1
2019-02-23T19:12:18.246Z,2.8
2019-02-23T19:15:18.079Z,2.6
2019-02-23T19:18:24.875Z,2.7
2019-02-23T19:21:19.022Z,2.6
2019-02-23T19:24:18.179Z,2.5
2019-02-23T19:27:18.075Z,2.5
2019-02-23T19:30:17.958Z,2.5
2019-02-23T19:33:18.009Z,2.5
2019-02-23T19:36:18.331Z,2.4
2019-02-23T19:39:18.459Z,2.4
2019-02-23T19:42:20.107Z,2.8
2019-02-23T19:45:18.720Z,6.2
2019-02-23T19:48:18.281Z,5.8
2019-02-23T19:51:18.175Z,4.4
2019-02-23T19:54:18.269Z,5.1
2019-02-23T19:57:19.224Z,4.4
2019-02-23T20:00:18.395Z,3.8
2019-02-23T20:03:18.445Z,3.5
2019-02-23T20:06:19.350Z,3.1
2019-02-23T20:09:18.194Z,3
2019-02-23T20:12:18.263Z,3.2
2019-02-23T20:15:18.448Z,3.6
2019-02-23T20:18:18.789Z,4.5
2019-02-23T20:21:17.764Z,5
2019-02-23T20:24:18.754Z,3.8
2019-02-23T20:27:17.989Z,3.5
2019-02-23T20:30:18.358Z,3.4
2019-02-23T20:33:19.401Z,3
2019-02-23T20:36:17.921Z,3.1
2019-02-23T20:39:18.175Z,3.3
2019-02-23T20:42:17.896Z,3.2
2019-02-23T20:45:19.006Z,3.5
2019-02-23T20:48:18.754Z,3.9
2019-02-23T20:51:19.931Z,4.3
2019-02-23T20:54:18.618Z,3.8
2019-02-23T20:57:18.330Z,3.5
2019-02-23T21:00:18.374Z,3.6
2019-02-23T21:03:19.054Z,3.5
2019-02-23T21:06:18.391Z,3.7
2019-02-23T21:09:18.353Z,3.4
2019-02-23T21:12:18.487Z,3.9
2019-02-23T21:15:18.110Z,3.3
2019-02-23T21:18:18.120Z,3.2
2019-02-23T21:21:17.969Z,3.7
2019-02-23T21:24:18.421Z,3.1
2019-02-23T21:27:18.124Z,3.8
2019-02-23T21:30:17.818Z,3.7
2019-02-23T21:33:18.039Z,3.2
2019-02-23T21:36:18.299Z,3
2019-02-23T21:39:19.761Z,3.2
2019-02-23T21:42:18.379Z,3
2019-02-23T21:45:18.254Z,2.8
2019-02-23T21:48:18.288Z,3
2019-02-23T21:51:18.290Z,3.3
2019-02-23T21:54:18.129Z,3.1
2019-02-23T21:57:22.961Z,3.1
2019-02-23T22:00:18.350Z,2.7
2019-02-23T22:03:18.390Z,2.6
2019-02-23T22:06:18.174Z,3.2
2019-02-23T22:09:18.563Z,2.8
2019-02-23T22:12:18.562Z,2.7
2019-02-23T22:15:17.827Z,2.8
2019-02-23T22:18:17.937Z,2.6
2019-02-23T22:21:18.351Z,2.4
2019-02-23T22:24:18.096Z,2.7
2019-02-23T22:27:18.070Z,2.4
2019-02-23T22:30:18.946Z,2.4
2019-02-23T22:33:17.959Z,2.4
2019-02-23T22:36:18.350Z,2.3
2019-02-23T22:39:19.885Z,2.3
2019-02-23T22:42:19.926Z,2.2
2019-02-23T22:45:18.162Z,2.3
2019-02-23T22:48:18.627Z,2.5
2019-02-23T22:51:18.317Z,2.4
2019-02-23T22:54:17.785Z,2.3
2019-02-23T22:57:17.907Z,2.2
2019-02-23T23:00:19.794Z,2.4
2019-02-23T23:03:17.922Z,2.3
2019-02-23T23:06:18.929Z,2.3
2019-02-23T23:09:18.601Z,2.2
2019-02-23T23:12:18.037Z,2.2
2019-02-23T23:15:17.948Z,2.2
2019-02-23T23:18:18.403Z,2.4
2019-02-23T23:21:18.117Z,2.3
2019-02-23T23:24:18.358Z,2.7
2019-02-23T23:27:18.252Z,2.5
2019-02-23T23:30:18.054Z,2.4
2019-02-23T23:33:18.554Z,2.3
2019-02-23T23:36:18.483Z,2.3
2019-02-23T23:39:17.975Z,2.3
2019-02-23T23:42:17.886Z,2.3
2019-02-23T23:45:18.045Z,2.2
2019-02-23T23:48:18.102Z,2.1
2019-02-23T23:51:17.913Z,2.1
2019-02-23T23:54:18.965Z,2
2019-02-23T23:57:17.930Z,2.1
